sensor_id;sensor_type;location;lat;lon;timestamp;P1;durP1;ratioP1;P2;durP2;ratioP2
19519;SDS011;9904;52.246;20.898;2023-07-08T08:38:52;4.00;;;1.90;;
19519;SDS011;9904;52.246;20.898;2023-07-08T08:41:19;5.82;;;1.85;;
19519;SDS011;9904;52.246;20.898;2023-07-08T08:43:50;4.95;;;1.70;;
19519;SDS011;9904;52.246;20.898;2023-07-08T11:48:03;3.08;;;2.00;;
19519;SDS011;9904;52.246;20.898;2023-07-08T11:50:33;6.05;;;2.13;;
19519;SDS011;9904;52.246;20.898;2023-07-08T11:53:06;4.57;;;2.20;;
19519;SDS011;9904;52.246;20.898;2023-07-08T11:55:44;4.57;;;2.20;;
19519;SDS011;9904;52.246;20.898;2023-07-08T11:58:19;7.18;;;2.28;;
19519;SDS011;9904;52.246;20.898;2023-07-08T12:00:58;5.43;;;2.22;;
19519;SDS011;9904;52.246;20.898;2023-07-08T12:03:39;5.70;;;1.83;;
19519;SDS011;9904;52.246;20.898;2023-07-08T12:08:53;7.65;;;2.20;;
19519;SDS011;9904;52.246;20.898;2023-07-08T12:11:33;5.30;;;2.33;;
19519;SDS011;9904;52.246;20.898;2023-07-08T12:14:02;5.63;;;2.45;;
19519;SDS011;9904;52.246;20.898;2023-07-08T12:16:31;3.08;;;2.13;;
19519;SDS011;9904;52.246;20.898;2023-07-08T12:18:59;3.75;;;2.20;;
19519;SDS011;9904;52.246;20.898;2023-07-08T12:21:27;5.10;;;2.15;;
19519;SDS011;9904;52.246;20.898;2023-07-08T12:23:54;5.93;;;2.40;;
19519;SDS011;9904;52.246;20.898;2023-07-08T12:26:21;9.48;;;2.40;;
19519;SDS011;9904;52.246;20.898;2023-07-08T12:28:51;4.38;;;2.33;;
19519;SDS011;9904;52.246;20.898;2023-07-08T12:31:21;7.55;;;2.03;;
19519;SDS011;9904;52.246;20.898;2023-07-08T12:33:49;4.25;;;2.17;;
19519;SDS011;9904;52.246;20.898;2023-07-08T12:36:18;6.97;;;2.30;;
19519;SDS011;9904;52.246;20.898;2023-07-08T12:38:51;4.75;;;2.47;;
19519;SDS011;9904;52.246;20.898;2023-07-08T12:41:20;3.10;;;1.95;;
19519;SDS011;9904;52.246;20.898;2023-07-08T12:43:51;4.60;;;2.42;;
19519;SDS011;9904;52.246;20.898;2023-07-08T12:46:19;4.38;;;2.50;;
19519;SDS011;9904;52.246;20.898;2023-07-08T12:48:48;5.22;;;2.15;;
19519;SDS011;9904;52.246;20.898;2023-07-08T12:51:16;4.63;;;2.10;;
19519;SDS011;9904;52.246;20.898;2023-07-08T12:53:47;3.33;;;2.20;;
19519;SDS011;9904;52.246;20.898;2023-07-08T12:56:14;4.90;;;2.40;;
19519;SDS011;9904;52.246;20.898;2023-07-08T12:58:43;5.75;;;2.40;;
19519;SDS011;9904;52.246;20.898;2023-07-08T13:01:21;4.32;;;2.40;;
19519;SDS011;9904;52.246;20.898;2023-07-08T13:03:50;7.05;;;2.20;;
19519;SDS011;9904;52.246;20.898;2023-07-08T13:06:21;4.35;;;2.30;;
19519;SDS011;9904;52.246;20.898;2023-07-08T13:08:49;5.00;;;2.25;;
19519;SDS011;9904;52.246;20.898;2023-07-08T13:11:16;4.38;;;2.30;;
19519;SDS011;9904;52.246;20.898;2023-07-08T13:13:48;6.88;;;2.70;;
19519;SDS011;9904;52.246;20.898;2023-07-08T13:16:18;3.38;;;2.42;;
19519;SDS011;9904;52.246;20.898;2023-07-08T13:18:47;2.67;;;1.85;;
19519;SDS011;9904;52.246;20.898;2023-07-08T13:21:14;3.85;;;2.10;;
19519;SDS011;9904;52.246;20.898;2023-07-08T13:23:42;4.75;;;2.38;;
19519;SDS011;9904;52.246;20.898;2023-07-08T13:26:12;9.50;;;2.45;;
19519;SDS011;9904;52.246;20.898;2023-07-08T13:28:41;6.35;;;2.30;;
19519;SDS011;9904;52.246;20.898;2023-07-08T13:31:15;7.68;;;2.17;;
19519;SDS011;9904;52.246;20.898;2023-07-08T13:33:50;4.40;;;2.22;;
19519;SDS011;9904;52.246;20.898;2023-07-08T13:36:23;5.57;;;2.35;;
19519;SDS011;9904;52.246;20.898;2023-07-08T13:39:05;2.67;;;1.90;;
19519;SDS011;9904;52.246;20.898;2023-07-08T13:41:33;3.75;;;2.00;;
19519;SDS011;9904;52.246;20.898;2023-07-08T13:44:06;3.90;;;2.25;;
19519;SDS011;9904;52.246;20.898;2023-07-08T13:46:44;3.33;;;2.00;;
19519;SDS011;9904;52.246;20.898;2023-07-08T13:49:23;4.68;;;2.22;;
19519;SDS011;9904;52.246;20.898;2023-07-08T13:52:14;5.38;;;2.40;;
19519;SDS011;9904;52.246;20.898;2023-07-08T13:54:50;5.15;;;2.35;;
19519;SDS011;9904;52.246;20.898;2023-07-08T13:57:30;4.93;;;2.20;;
19519;SDS011;9904;52.246;20.898;2023-07-08T13:59:59;3.42;;;1.88;;
19519;SDS011;9904;52.246;20.898;2023-07-08T14:02:27;3.33;;;2.13;;
19519;SDS011;9904;52.246;20.898;2023-07-08T14:04:56;6.30;;;2.10;;
19519;SDS011;9904;52.246;20.898;2023-07-08T14:07:24;5.90;;;2.42;;
19519;SDS011;9904;52.246;20.898;2023-07-08T14:09:52;5.03;;;2.40;;
19519;SDS011;9904;52.246;20.898;2023-07-08T14:12:21;4.10;;;2.20;;
19519;SDS011;9904;52.246;20.898;2023-07-08T14:14:49;5.60;;;2.35;;
19519;SDS011;9904;52.246;20.898;2023-07-08T14:17:24;4.78;;;2.60;;
19519;SDS011;9904;52.246;20.898;2023-07-08T14:19:52;5.30;;;2.03;;
19519;SDS011;9904;52.246;20.898;2023-07-08T14:22:23;3.30;;;1.98;;
19519;SDS011;9904;52.246;20.898;2023-07-08T14:24:50;4.78;;;2.22;;
19519;SDS011;9904;52.246;20.898;2023-07-08T14:27:17;5.65;;;2.20;;
19519;SDS011;9904;52.246;20.898;2023-07-08T14:29:48;3.20;;;2.00;;
19519;SDS011;9904;52.246;20.898;2023-07-08T14:32:22;4.78;;;2.40;;
19519;SDS011;9904;52.246;20.898;2023-07-08T14:34:54;4.15;;;1.95;;
19519;SDS011;9904;52.246;20.898;2023-07-08T14:37:22;3.33;;;1.92;;
19519;SDS011;9904;52.246;20.898;2023-07-08T14:39:48;3.47;;;2.28;;
19519;SDS011;9904;52.246;20.898;2023-07-08T14:42:16;5.78;;;2.30;;
19519;SDS011;9904;52.246;20.898;2023-07-08T14:44:50;3.38;;;1.98;;
19519;SDS011;9904;52.246;20.898;2023-07-08T14:47:18;3.72;;;2.03;;
19519;SDS011;9904;52.246;20.898;2023-07-08T14:49:47;6.63;;;2.28;;
19519;SDS011;9904;52.246;20.898;2023-07-08T14:52:14;5.25;;;2.65;;
19519;SDS011;9904;52.246;20.898;2023-07-08T14:54:41;2.97;;;1.90;;
19519;SDS011;9904;52.246;20.898;2023-07-08T14:57:09;3.28;;;2.05;;
19519;SDS011;9904;52.246;20.898;2023-07-08T14:59:37;4.47;;;2.33;;
19519;SDS011;9904;52.246;20.898;2023-07-08T15:02:22;4.80;;;2.35;;
19519;SDS011;9904;52.246;20.898;2023-07-08T15:04:49;6.57;;;2.50;;
19519;SDS011;9904;52.246;20.898;2023-07-08T15:07:20;6.07;;;2.65;;
19519;SDS011;9904;52.246;20.898;2023-07-08T15:09:47;8.38;;;2.40;;
19519;SDS011;9904;52.246;20.898;2023-07-08T15:12:14;5.05;;;2.70;;
19519;SDS011;9904;52.246;20.898;2023-07-08T15:14:40;3.53;;;2.20;;
19519;SDS011;9904;52.246;20.898;2023-07-08T15:17:16;3.20;;;2.30;;
19519;SDS011;9904;52.246;20.898;2023-07-08T15:19:44;5.65;;;2.10;;
19519;SDS011;9904;52.246;20.898;2023-07-08T15:22:11;4.47;;;2.22;;
19519;SDS011;9904;52.246;20.898;2023-07-08T15:24:37;3.28;;;2.10;;
19519;SDS011;9904;52.246;20.898;2023-07-08T15:27:04;4.38;;;2.35;;
19519;SDS011;9904;52.246;20.898;2023-07-08T15:29:31;4.72;;;2.20;;
19519;SDS011;9904;52.246;20.898;2023-07-08T15:31:59;6.07;;;2.55;;
19519;SDS011;9904;52.246;20.898;2023-07-08T15:34:26;3.95;;;2.25;;
19519;SDS011;9904;52.246;20.898;2023-07-08T15:36:52;7.72;;;2.55;;
19519;SDS011;9904;52.246;20.898;2023-07-08T15:39:20;4.65;;;2.20;;
19519;SDS011;9904;52.246;20.898;2023-07-08T15:41:47;5.10;;;2.40;;
19519;SDS011;9904;52.246;20.898;2023-07-08T15:44:14;5.95;;;2.15;;
19519;SDS011;9904;52.246;20.898;2023-07-08T15:46:42;8.43;;;2.25;;
19519;SDS011;9904;52.246;20.898;2023-07-08T15:49:14;5.55;;;2.38;;
19519;SDS011;9904;52.246;20.898;2023-07-08T15:51:42;7.80;;;2.25;;
19519;SDS011;9904;52.246;20.898;2023-07-08T15:54:13;3.88;;;2.13;;
19519;SDS011;9904;52.246;20.898;2023-07-08T15:56:40;6.30;;;2.47;;
19519;SDS011;9904;52.246;20.898;2023-07-08T15:59:14;4.10;;;2.25;;
19519;SDS011;9904;52.246;20.898;2023-07-08T16:01:42;6.80;;;2.00;;
19519;SDS011;9904;52.246;20.898;2023-07-08T16:04:25;3.70;;;2.00;;
19519;SDS011;9904;52.246;20.898;2023-07-08T16:06:58;4.00;;;2.10;;
19519;SDS011;9904;52.246;20.898;2023-07-08T16:09:25;7.18;;;2.88;;
19519;SDS011;9904;52.246;20.898;2023-07-08T16:11:52;6.35;;;2.33;;
19519;SDS011;9904;52.246;20.898;2023-07-08T16:14:20;5.65;;;2.25;;
19519;SDS011;9904;52.246;20.898;2023-07-08T16:16:50;3.60;;;1.92;;
19519;SDS011;9904;52.246;20.898;2023-07-08T16:19:20;4.07;;;2.55;;
19519;SDS011;9904;52.246;20.898;2023-07-08T16:21:47;7.80;;;2.00;;
19519;SDS011;9904;52.246;20.898;2023-07-08T16:24:14;3.83;;;2.33;;
19519;SDS011;9904;52.246;20.898;2023-07-08T16:26:41;4.57;;;2.03;;
19519;SDS011;9904;52.246;20.898;2023-07-08T16:29:10;3.60;;;2.28;;
19519;SDS011;9904;52.246;20.898;2023-07-08T16:31:41;2.67;;;1.92;;
19519;SDS011;9904;52.246;20.898;2023-07-08T16:34:08;3.72;;;1.92;;
19519;SDS011;9904;52.246;20.898;2023-07-08T16:36:39;4.43;;;2.20;;
19519;SDS011;9904;52.246;20.898;2023-07-08T16:39:07;5.10;;;2.35;;
19519;SDS011;9904;52.246;20.898;2023-07-08T16:41:34;4.45;;;2.47;;
19519;SDS011;9904;52.246;20.898;2023-07-08T16:44:14;6.32;;;2.70;;
19519;SDS011;9904;52.246;20.898;2023-07-08T16:46:42;3.30;;;2.25;;
19519;SDS011;9904;52.246;20.898;2023-07-08T16:49:09;4.70;;;2.42;;
19519;SDS011;9904;52.246;20.898;2023-07-08T16:51:36;5.60;;;2.63;;
19519;SDS011;9904;52.246;20.898;2023-07-08T16:54:13;6.35;;;2.33;;
19519;SDS011;9904;52.246;20.898;2023-07-08T16:56:41;4.93;;;2.20;;
19519;SDS011;9904;52.246;20.898;2023-07-08T16:59:09;6.80;;;1.98;;
19519;SDS011;9904;52.246;20.898;2023-07-08T17:01:40;6.90;;;2.20;;
19519;SDS011;9904;52.246;20.898;2023-07-08T17:04:08;3.47;;;2.08;;
19519;SDS011;9904;52.246;20.898;2023-07-08T17:06:37;6.88;;;2.25;;
19519;SDS011;9904;52.246;20.898;2023-07-08T17:09:04;6.22;;;2.42;;
19519;SDS011;9904;52.246;20.898;2023-07-08T17:11:31;3.92;;;2.10;;
19519;SDS011;9904;52.246;20.898;2023-07-08T17:13:58;3.38;;;2.20;;
19519;SDS011;9904;52.246;20.898;2023-07-08T17:16:32;4.75;;;2.35;;
19519;SDS011;9904;52.246;20.898;2023-07-08T17:19:00;5.72;;;2.30;;
19519;SDS011;9904;52.246;20.898;2023-07-08T17:21:26;4.88;;;2.20;;
19519;SDS011;9904;52.246;20.898;2023-07-08T17:23:53;5.65;;;2.47;;
19519;SDS011;9904;52.246;20.898;2023-07-08T17:26:20;3.85;;;2.10;;
19519;SDS011;9904;52.246;20.898;2023-07-08T17:28:47;8.02;;;2.78;;
19519;SDS011;9904;52.246;20.898;2023-07-08T17:31:18;8.00;;;2.30;;
19519;SDS011;9904;52.246;20.898;2023-07-08T17:34:10;3.17;;;2.10;;
19519;SDS011;9904;52.246;20.898;2023-07-08T17:36:42;5.35;;;2.13;;
19519;SDS011;9904;52.246;20.898;2023-07-08T17:39:11;14.57;;;2.53;;
19519;SDS011;9904;52.246;20.898;2023-07-08T17:41:38;5.35;;;2.22;;
19519;SDS011;9904;52.246;20.898;2023-07-08T17:44:05;9.50;;;2.88;;
19519;SDS011;9904;52.246;20.898;2023-07-08T17:46:32;6.07;;;2.20;;
19519;SDS011;9904;52.246;20.898;2023-07-08T17:50:22;5.28;;;2.97;;
19519;SDS011;9904;52.246;20.898;2023-07-08T17:52:51;3.80;;;2.40;;
19519;SDS011;9904;52.246;20.898;2023-07-08T17:55:20;6.82;;;2.47;;
19519;SDS011;9904;52.246;20.898;2023-07-08T17:57:47;5.65;;;2.38;;
19519;SDS011;9904;52.246;20.898;2023-07-08T18:02:47;8.35;;;3.20;;
19519;SDS011;9904;52.246;20.898;2023-07-08T18:05:18;10.57;;;3.17;;
19519;SDS011;9904;52.246;20.898;2023-07-08T18:07:47;6.50;;;2.65;;
19519;SDS011;9904;52.246;20.898;2023-07-08T18:10:14;12.82;;;3.40;;
19519;SDS011;9904;52.246;20.898;2023-07-08T18:12:43;5.97;;;3.10;;
19519;SDS011;9904;52.246;20.898;2023-07-08T18:15:21;4.40;;;2.67;;
19519;SDS011;9904;52.246;20.898;2023-07-08T18:17:51;8.45;;;3.05;;
19519;SDS011;9904;52.246;20.898;2023-07-08T18:20:20;8.50;;;2.88;;
19519;SDS011;9904;52.246;20.898;2023-07-08T18:22:49;6.95;;;3.30;;
19519;SDS011;9904;52.246;20.898;2023-07-08T18:25:18;9.00;;;3.25;;
19519;SDS011;9904;52.246;20.898;2023-07-08T18:27:47;7.55;;;2.70;;
19519;SDS011;9904;52.246;20.898;2023-07-08T18:30:15;7.53;;;3.13;;
19519;SDS011;9904;52.246;20.898;2023-07-08T18:32:47;14.07;;;3.08;;
19519;SDS011;9904;52.246;20.898;2023-07-08T18:35:18;8.68;;;3.22;;
19519;SDS011;9904;52.246;20.898;2023-07-08T18:37:47;8.85;;;3.03;;
19519;SDS011;9904;52.246;20.898;2023-07-08T18:40:18;8.05;;;2.88;;
19519;SDS011;9904;52.246;20.898;2023-07-08T18:42:52;7.88;;;2.42;;
19519;SDS011;9904;52.246;20.898;2023-07-08T18:45:21;6.18;;;2.92;;
19519;SDS011;9904;52.246;20.898;2023-07-08T18:47:48;8.27;;;3.15;;
19519;SDS011;9904;52.246;20.898;2023-07-08T18:50:15;8.75;;;2.80;;
19519;SDS011;9904;52.246;20.898;2023-07-08T18:52:42;4.53;;;2.95;;
19519;SDS011;9904;52.246;20.898;2023-07-08T18:55:15;9.05;;;3.25;;
19519;SDS011;9904;52.246;20.898;2023-07-08T18:57:54;11.82;;;3.08;;
19519;SDS011;9904;52.246;20.898;2023-07-08T19:00:21;11.40;;;3.00;;
19519;SDS011;9904;52.246;20.898;2023-07-08T19:02:51;7.93;;;3.40;;
19519;SDS011;9904;52.246;20.898;2023-07-08T19:05:20;9.10;;;3.50;;
19519;SDS011;9904;52.246;20.898;2023-07-08T19:07:48;5.10;;;2.63;;
19519;SDS011;9904;52.246;20.898;2023-07-08T19:10:16;9.20;;;3.17;;
19519;SDS011;9904;52.246;20.898;2023-07-08T19:12:44;10.15;;;3.28;;
19519;SDS011;9904;52.246;20.898;2023-07-08T19:15:22;6.53;;;2.85;;
19519;SDS011;9904;52.246;20.898;2023-07-08T19:17:57;8.50;;;3.10;;
19519;SDS011;9904;52.246;20.898;2023-07-08T19:20:25;9.13;;;2.93;;
19519;SDS011;9904;52.246;20.898;2023-07-08T19:26:03;7.97;;;3.40;;
19519;SDS011;9904;52.246;20.898;2023-07-08T19:28:30;4.80;;;2.85;;
19519;SDS011;9904;52.246;20.898;2023-07-08T19:30:56;11.35;;;3.60;;
19519;SDS011;9904;52.246;20.898;2023-07-08T19:33:23;14.35;;;3.22;;
19519;SDS011;9904;52.246;20.898;2023-07-08T19:35:50;7.70;;;3.40;;
19519;SDS011;9904;52.246;20.898;2023-07-08T19:38:17;10.88;;;3.13;;
19519;SDS011;9904;52.246;20.898;2023-07-08T19:40:49;6.85;;;3.35;;
19519;SDS011;9904;52.246;20.898;2023-07-08T19:43:17;8.35;;;3.25;;
19519;SDS011;9904;52.246;20.898;2023-07-08T19:45:45;7.50;;;3.47;;
19519;SDS011;9904;52.246;20.898;2023-07-08T20:40:28;8.35;;;3.85;;
19519;SDS011;9904;52.246;20.898;2023-07-08T20:42:56;8.80;;;3.65;;
19519;SDS011;9904;52.246;20.898;2023-07-08T20:45:24;7.35;;;3.78;;
19519;SDS011;9904;52.246;20.898;2023-07-08T20:47:53;7.87;;;3.70;;
19519;SDS011;9904;52.246;20.898;2023-07-08T20:50:21;6.13;;;3.43;;
19519;SDS011;9904;52.246;20.898;2023-07-08T20:52:49;6.30;;;3.10;;
19519;SDS011;9904;52.246;20.898;2023-07-08T20:55:17;9.02;;;3.80;;
19519;SDS011;9904;52.246;20.898;2023-07-08T20:57:47;6.87;;;3.13;;
19519;SDS011;9904;52.246;20.898;2023-07-08T21:00:27;6.07;;;3.35;;
19519;SDS011;9904;52.246;20.898;2023-07-08T21:02:56;5.90;;;3.50;;
19519;SDS011;9904;52.246;20.898;2023-07-08T21:05:24;6.13;;;2.97;;
19519;SDS011;9904;52.246;20.898;2023-07-08T21:07:56;8.35;;;3.33;;
19519;SDS011;9904;52.246;20.898;2023-07-08T21:10:24;10.48;;;3.65;;
19519;SDS011;9904;52.246;20.898;2023-07-08T21:12:54;8.65;;;3.80;;
19519;SDS011;9904;52.246;20.898;2023-07-08T21:15:23;11.73;;;3.40;;
19519;SDS011;9904;52.246;20.898;2023-07-08T21:17:55;7.20;;;3.30;;
19519;SDS011;9904;52.246;20.898;2023-07-08T21:20:23;6.57;;;3.65;;
19519;SDS011;9904;52.246;20.898;2023-07-08T21:22:54;7.93;;;3.22;;
19519;SDS011;9904;52.246;20.898;2023-07-08T21:25:23;5.37;;;3.40;;
19519;SDS011;9904;52.246;20.898;2023-07-08T21:27:51;8.30;;;3.57;;
19519;SDS011;9904;52.246;20.898;2023-07-08T21:30:19;7.63;;;3.63;;
19519;SDS011;9904;52.246;20.898;2023-07-08T21:32:51;8.10;;;3.53;;
19519;SDS011;9904;52.246;20.898;2023-07-08T21:35:21;7.25;;;3.88;;
19519;SDS011;9904;52.246;20.898;2023-07-08T21:37:50;7.47;;;3.45;;
19519;SDS011;9904;52.246;20.898;2023-07-08T21:40:28;8.05;;;3.53;;
19519;SDS011;9904;52.246;20.898;2023-07-08T21:43:04;6.75;;;3.72;;
19519;SDS011;9904;52.246;20.898;2023-07-08T21:45:33;9.43;;;3.83;;
19519;SDS011;9904;52.246;20.898;2023-07-08T21:48:01;8.10;;;3.60;;
19519;SDS011;9904;52.246;20.898;2023-07-08T21:50:30;11.73;;;3.25;;
19519;SDS011;9904;52.246;20.898;2023-07-08T21:53:01;8.87;;;4.20;;
19519;SDS011;9904;52.246;20.898;2023-07-08T21:59:36;10.17;;;3.60;;
19519;SDS011;9904;52.246;20.898;2023-07-08T22:02:03;10.67;;;3.53;;
19519;SDS011;9904;52.246;20.898;2023-07-08T22:04:34;8.57;;;3.83;;
19519;SDS011;9904;52.246;20.898;2023-07-08T22:07:01;6.53;;;3.83;;
19519;SDS011;9904;52.246;20.898;2023-07-08T22:09:30;16.53;;;4.23;;
19519;SDS011;9904;52.246;20.898;2023-07-08T22:11:57;7.43;;;4.07;;
19519;SDS011;9904;52.246;20.898;2023-07-08T22:14:23;10.33;;;3.83;;
19519;SDS011;9904;52.246;20.898;2023-07-08T22:16:50;11.40;;;4.20;;
19519;SDS011;9904;52.246;20.898;2023-07-08T22:19:36;9.40;;;4.33;;
19519;SDS011;9904;52.246;20.898;2023-07-08T22:22:02;11.30;;;3.90;;
19519;SDS011;9904;52.246;20.898;2023-07-08T22:24:29;10.17;;;4.23;;
19519;SDS011;9904;52.246;20.898;2023-07-08T22:26:58;9.07;;;4.20;;
19519;SDS011;9904;52.246;20.898;2023-07-08T22:29:25;7.10;;;3.57;;
19519;SDS011;9904;52.246;20.898;2023-07-08T22:31:52;7.23;;;4.17;;
19519;SDS011;9904;52.246;20.898;2023-07-08T22:34:18;9.17;;;4.33;;
19519;SDS011;9904;52.246;20.898;2023-07-08T22:36:45;7.30;;;3.60;;
19519;SDS011;9904;52.246;20.898;2023-07-08T22:39:12;9.27;;;3.77;;
19519;SDS011;9904;52.246;20.898;2023-07-08T22:44:16;9.13;;;3.70;;
19519;SDS011;9904;52.246;20.898;2023-07-08T22:46:44;8.70;;;4.10;;
19519;SDS011;9904;52.246;20.898;2023-07-08T22:49:11;9.43;;;3.97;;
19519;SDS011;9904;52.246;20.898;2023-07-08T22:51:50;6.73;;;3.80;;
19519;SDS011;9904;52.246;20.898;2023-07-08T22:54:20;7.10;;;3.80;;
19519;SDS011;9904;52.246;20.898;2023-07-08T22:56:46;11.53;;;4.53;;
19519;SDS011;9904;52.246;20.898;2023-07-08T22:59:13;6.63;;;3.87;;
19519;SDS011;9904;52.246;20.898;2023-07-08T23:01:40;7.33;;;3.80;;
19519;SDS011;9904;52.246;20.898;2023-07-08T23:04:07;9.33;;;4.20;;
19519;SDS011;9904;52.246;20.898;2023-07-08T23:06:34;9.80;;;3.93;;
19519;SDS011;9904;52.246;20.898;2023-07-08T23:09:01;8.93;;;4.00;;
19519;SDS011;9904;52.246;20.898;2023-07-08T23:11:28;10.60;;;3.67;;
19519;SDS011;9904;52.246;20.898;2023-07-08T23:13:55;8.53;;;4.10;;
19519;SDS011;9904;52.246;20.898;2023-07-08T23:16:24;8.73;;;3.50;;
19519;SDS011;9904;52.246;20.898;2023-07-08T23:18:57;7.03;;;4.13;;
19519;SDS011;9904;52.246;20.898;2023-07-08T23:21:27;8.90;;;4.10;;
19519;SDS011;9904;52.246;20.898;2023-07-08T23:23:54;7.27;;;4.23;;
19519;SDS011;9904;52.246;20.898;2023-07-08T23:26:21;12.00;;;3.57;;
19519;SDS011;9904;52.246;20.898;2023-07-08T23:28:53;7.53;;;4.10;;
19519;SDS011;9904;52.246;20.898;2023-07-08T23:31:23;10.30;;;4.00;;
19519;SDS011;9904;52.246;20.898;2023-07-08T23:33:51;9.90;;;4.07;;
19519;SDS011;9904;52.246;20.898;2023-07-08T23:36:29;10.17;;;4.10;;
19519;SDS011;9904;52.246;20.898;2023-07-08T23:38:59;6.43;;;3.53;;
19519;SDS011;9904;52.246;20.898;2023-07-08T23:41:26;6.40;;;3.60;;
19519;SDS011;9904;52.246;20.898;2023-07-08T23:43:53;6.43;;;3.47;;
19519;SDS011;9904;52.246;20.898;2023-07-08T23:46:24;7.90;;;3.53;;
19519;SDS011;9904;52.246;20.898;2023-07-08T23:48:52;13.13;;;3.97;;
19519;SDS011;9904;52.246;20.898;2023-07-08T23:51:20;7.67;;;3.93;;
19519;SDS011;9904;52.246;20.898;2023-07-08T23:53:48;5.60;;;3.60;;
19519;SDS011;9904;52.246;20.898;2023-07-08T23:56:15;12.83;;;3.87;;
19519;SDS011;9904;52.246;20.898;2023-07-08T23:58:42;6.43;;;3.60;;
